Time;durP1;ratioP1;P1;durP2;ratioP2;P2;SDS_P1;SDS_P2;PMS_P1;PMS_P2;Temp;Humidity;BMP_temperature;BMP_pressure;BME280_temperature;BME280_humidity;BME280_pressure;Samples;Min_cycle;Max_cycle;Signal;HPM_P1;HPM_P2
2022/05/27 00:02:22;;;;;;;1.90;1.80;;;22.50;51.90;;;;;;5080441;28;20439;-83
2022/05/27 00:04:50;;;;;;;2.57;2.20;;;22.50;51.90;;;;;;5080061;28;20464;-82
2022/05/27 00:07:19;;;;;;;5.07;2.13;;;22.50;51.90;;;;;;5079675;28;20491;-83
2022/05/27 00:09:48;;;;;;;5.40;2.50;;;22.40;51.80;;;;;;5080388;28;20523;-84
2022/05/27 00:12:16;;;;;;;6.53;2.50;;;22.40;51.90;;;;;;5080142;28;20497;-83
2022/05/27 00:14:44;;;;;;;3.00;2.17;;;22.50;52.00;;;;;;5080398;28;20535;-83
2022/05/27 00:17:12;;;;;;;2.50;2.00;;;22.40;51.90;;;;;;5081274;28;20480;-83
2022/05/27 00:19:41;;;;;;;4.60;2.27;;;22.40;51.90;;;;;;5080854;28;20499;-83
2022/05/27 00:22:09;;;;;;;6.60;2.20;;;22.40;52.00;;;;;;5076784;28;20504;-83
2022/05/27 00:24:37;;;;;;;2.37;2.00;;;22.50;52.00;;;;;;5081186;28;20455;-83
2022/05/27 00:27:08;;;;;;;3.63;2.53;;;22.40;52.00;;;;;;5081343;28;20438;-83
2022/05/27 00:29:36;;;;;;;4.23;2.33;;;22.40;51.90;;;;;;5081379;28;20467;-82
2022/05/27 00:32:24;;;;;;;3.00;2.20;;;22.40;51.90;;;;;;5076272;28;20438;-83
2022/05/27 00:34:52;;;;;;;3.23;2.10;;;22.40;51.90;;;;;;5081273;28;20577;-83
2022/05/27 00:37:20;;;;;;;5.27;2.30;;;22.40;52.50;;;;;;5080566;28;20474;-82
2022/05/27 00:39:48;;;;;;;3.10;2.27;;;22.40;51.90;;;;;;5080729;28;20465;-83
2022/05/27 00:42:17;;;;;;;3.33;2.17;;;22.30;51.80;;;;;;5080155;28;20512;-84
2022/05/27 00:44:45;;;;;;;3.23;2.07;;;22.30;52.00;;;;;;5079695;28;20604;-82
2022/05/27 00:47:14;;;;;;;2.00;1.87;;;22.30;51.90;;;;;;5079997;28;20419;-83
2022/05/27 00:49:45;;;;;;;3.83;2.20;;;22.30;51.90;;;;;;5066511;28;20545;-83
2022/05/27 00:52:14;;;;;;;2.73;1.97;;;22.30;51.90;;;;;;5060079;28;20505;-83
2022/05/27 00:54:42;;;;;;;2.37;1.83;;;22.30;51.80;;;;;;5059193;28;20474;-83
2022/05/27 00:57:12;;;;;;;2.83;2.07;;;22.30;51.90;;;;;;5059611;28;20526;-82
2022/05/27 00:59:43;;;;;;;2.90;2.20;;;22.30;51.90;;;;;;5062263;28;20484;-82
2022/05/27 01:02:11;;;;;;;3.70;1.87;;;22.30;51.90;;;;;;5063473;28;20486;-83
2022/05/27 01:04:39;;;;;;;2.70;1.83;;;22.30;51.90;;;;;;5062290;28;20481;-83
2022/05/27 01:07:07;;;;;;;4.80;2.10;;;22.30;51.90;;;;;;5066945;28;20520;-83
2022/05/27 01:09:35;;;;;;;2.17;1.97;;;22.30;51.90;;;;;;5079143;28;20476;-82
2022/05/27 01:12:21;;;;;;;2.70;2.00;;;22.30;52.00;;;;;;5084211;28;20499;-84
2022/05/27 01:14:57;;;;;;;3.33;1.97;;;22.40;52.00;;;;;;5082274;28;20448;-82
2022/05/27 01:17:29;;;;;;;3.90;2.20;;;22.30;51.70;;;;;;5083099;28;20496;-83
2022/05/27 01:20:19;;;;;;;3.47;1.83;;;22.30;51.90;;;;;;5082786;28;20465;-83
2022/05/27 01:23:03;;;;;;;2.33;1.87;;;22.20;51.90;;;;;;5082268;28;20468;-83
2022/05/27 01:25:52;;;;;;;2.00;1.77;;;22.20;51.90;;;;;;5072505;28;20477;-81
2022/05/27 01:28:37;;;;;;;1.60;1.50;;;22.20;52.10;;;;;;5070003;28;20449;-84
2022/05/27 01:31:10;;;;;;;2.37;2.07;;;22.20;52.10;;;;;;5087117;28;20459;-83
2022/05/27 01:33:40;;;;;;;3.23;1.83;;;22.10;51.90;;;;;;5084904;28;20409;-84
2022/05/27 01:36:13;;;;;;;1.97;1.67;;;22.20;52.00;;;;;;5086294;28;20440;-84
2022/05/27 01:38:44;;;;;;;2.40;1.80;;;22.10;52.00;;;;;;5086387;28;20441;-85
2022/05/27 01:41:16;;;;;;;2.27;1.63;;;22.10;51.90;;;;;;5085152;28;20428;-83
2022/05/27 01:43:48;;;;;;;4.13;2.27;;;22.10;52.00;;;;;;5083659;28;20440;-84
2022/05/27 01:46:18;;;;;;;2.50;1.93;;;22.10;52.00;;;;;;5085675;28;20472;-85
2022/05/27 01:48:56;;;;;;;2.97;1.70;;;22.10;52.10;;;;;;5085028;28;20445;-84
2022/05/27 01:51:27;;;;;;;3.67;2.00;;;22.10;52.10;;;;;;5086006;28;20489;-85
2022/05/27 01:53:56;;;;;;;2.93;1.50;;;22.10;52.10;;;;;;5085721;28;20502;-84
2022/05/27 01:56:27;;;;;;;3.07;1.67;;;22.00;52.10;;;;;;5086257;28;20445;-84
2022/05/27 01:59:23;;;;;;;3.03;1.90;;;22.00;52.10;;;;;;5084109;28;20446;-85
2022/05/27 02:01:59;;;;;;;2.40;1.70;;;22.00;52.20;;;;;;5068736;28;20472;-84
2022/05/27 02:04:31;;;;;;;1.70;1.60;;;22.00;52.10;;;;;;5084554;28;20416;-83
2022/05/27 02:07:02;;;;;;;3.93;1.60;;;22.00;52.20;;;;;;5082473;28;20476;-84
2022/05/27 02:09:31;;;;;;;3.07;2.10;;;22.00;52.30;;;;;;5081710;28;20473;-83
2022/05/27 02:12:08;;;;;;;1.70;1.60;;;21.90;52.30;;;;;;5081944;28;20468;-84
2022/05/27 02:14:46;;;;;;;2.97;1.80;;;21.90;52.20;;;;;;5082901;28;20472;-84
2022/05/27 02:17:20;;;;;;;2.03;1.80;;;21.90;52.40;;;;;;5076366;28;20433;-84
2022/05/27 02:19:56;;;;;;;3.87;2.27;;;21.90;52.40;;;;;;5081494;28;20438;-83
2022/05/27 02:22:25;;;;;;;2.80;1.73;;;21.80;52.30;;;;;;5081216;28;20529;-84
2022/05/27 02:24:58;;;;;;;3.40;1.90;;;21.80;52.40;;;;;;5081121;28;20500;-84
2022/05/27 02:27:28;;;;;;;1.83;1.50;;;21.80;52.40;;;;;;5081608;28;20481;-84
2022/05/27 02:30:01;;;;;;;2.50;1.93;;;21.70;52.40;;;;;;5081328;28;20465;-84
2022/05/27 02:32:32;;;;;;;3.53;2.10;;;21.70;52.50;;;;;;5075806;28;20446;-83
2022/05/27 02:35:09;;;;;;;1.97;1.70;;;21.60;52.40;;;;;;5061012;28;20439;-83
2022/05/27 02:37:40;;;;;;;2.70;2.07;;;21.70;52.60;;;;;;5062003;28;20417;-84
2022/05/27 02:40:12;;;;;;;2.10;1.90;;;21.60;52.50;;;;;;5060901;28;20441;-85
2022/05/27 02:42:46;;;;;;;1.67;1.57;;;21.60;52.50;;;;;;5061177;28;20413;-84
2022/05/27 02:45:18;;;;;;;4.40;1.93;;;21.60;52.60;;;;;;5060869;28;20474;-84
2022/05/27 02:47:53;;;;;;;2.43;1.60;;;21.60;52.60;;;;;;5061275;28;20456;-83
2022/05/27 02:50:27;;;;;;;1.73;1.50;;;21.60;52.60;;;;;;5078528;28;20504;-83
2022/05/27 02:52:58;;;;;;;2.43;1.50;;;21.50;52.60;;;;;;5080459;28;20404;-84
2022/05/27 02:55:29;;;;;;;2.37;1.60;;;21.50;52.60;;;;;;5080944;28;20472;-84
2022/05/27 02:58:02;;;;;;;2.07;1.87;;;21.50;52.70;;;;;;5080576;28;20449;-83
2022/05/27 03:00:36;;;;;;;2.20;1.77;;;21.50;52.70;;;;;;5080347;28;20465;-84
2022/05/27 03:03:06;;;;;;;2.07;1.60;;;21.50;52.80;;;;;;5081173;28;20465;-80
2022/05/27 03:05:40;;;;;;;1.60;1.50;;;21.40;52.70;;;;;;5080284;28;20553;-84
2022/05/27 03:08:14;;;;;;;3.00;1.60;;;21.40;52.70;;;;;;5064118;28;20465;-84
2022/05/27 03:10:53;;;;;;;6.10;2.10;;;21.40;52.70;;;;;;5059788;28;20553;-84
2022/05/27 03:13:50;;;;;;;4.33;1.83;;;21.40;52.70;;;;;;5060419;28;20444;-84
2022/05/27 03:16:33;;;;;;;3.10;1.73;;;21.40;52.80;;;;;;5059968;28;20420;-83
2022/05/27 03:19:21;;;;;;;2.63;1.70;;;21.30;52.60;;;;;;5061399;28;20448;-84
2022/05/27 03:21:53;;;;;;;3.53;1.80;;;21.30;52.70;;;;;;5058838;28;20508;-84
2022/05/27 03:24:25;;;;;;;1.77;1.63;;;21.30;52.60;;;;;;5072777;28;20488;-83
2022/05/27 03:26:59;;;;;;;2.93;2.17;;;21.30;52.60;;;;;;5079538;28;20672;-84
2022/05/27 03:29:30;;;;;;;3.20;1.70;;;21.30;52.60;;;;;;5080432;28;20455;-84
2022/05/27 03:32:01;;;;;;;2.17;1.80;;;21.30;52.60;;;;;;5079917;28;20475;-83
2022/05/27 03:34:33;;;;;;;5.20;2.00;;;21.20;52.60;;;;;;5080031;28;20433;-84
2022/05/27 03:37:03;;;;;;;2.00;1.80;;;21.20;52.70;;;;;;5079695;28;20457;-84
2022/05/27 03:39:33;;;;;;;1.80;1.67;;;21.20;52.70;;;;;;5080011;28;20424;-83
2022/05/27 03:42:02;;;;;;;1.83;1.50;;;21.20;52.60;;;;;;5079641;28;20527;-84
2022/05/27 03:44:34;;;;;;;3.20;1.60;;;21.20;52.60;;;;;;5078592;28;20457;-84
2022/05/27 03:47:02;;;;;;;2.30;1.67;;;21.20;52.60;;;;;;5079278;28;20500;-84
2022/05/27 03:49:32;;;;;;;1.90;1.70;;;21.20;52.50;;;;;;5079764;28;20473;-83
2022/05/27 03:52:05;;;;;;;1.90;1.80;;;21.20;52.60;;;;;;5079930;28;20504;-83
2022/05/27 03:54:33;;;;;;;3.20;1.80;;;21.10;52.60;;;;;;5080374;28;20460;-83
2022/05/27 03:57:01;;;;;;;2.20;1.57;;;21.10;52.60;;;;;;5079517;28;20533;-84
2022/05/27 03:59:29;;;;;;;2.27;2.10;;;21.20;52.60;;;;;;5078536;28;20420;-84
2022/05/27 04:04:47;;;;;;;1.80;1.40;;;21.10;52.60;;;;;;5078535;28;20424;-84
2022/05/27 04:07:16;;;;;;;3.27;1.73;;;21.20;52.60;;;;;;5079169;28;20527;-83
2022/05/27 04:09:52;;;;;;;2.13;1.80;;;21.20;52.60;;;;;;5079261;28;20881;-84
2022/05/27 04:15:17;;;;;;;1.67;1.57;;;21.10;52.60;;;;;;5070514;28;20432;-83
2022/05/27 04:17:45;;;;;;;2.70;1.67;;;21.10;52.50;;;;;;5076013;28;20537;-83
2022/05/27 04:20:17;;;;;;;1.80;1.43;;;21.10;52.50;;;;;;5078732;28;20431;-84
2022/05/27 04:22:45;;;;;;;1.87;1.70;;;21.10;52.50;;;;;;5079219;28;20533;-83
2022/05/27 04:25:13;;;;;;;1.57;1.47;;;21.20;52.60;;;;;;5079776;28;20452;-83
2022/05/27 04:27:42;;;;;;;1.70;1.60;;;21.20;52.50;;;;;;5078596;28;20490;-84
2022/05/27 04:30:13;;;;;;;1.83;1.63;;;21.10;52.40;;;;;;5079717;28;20928;-83
2022/05/27 04:32:41;;;;;;;2.47;1.80;;;21.20;52.40;;;;;;5065845;28;20492;-84
2022/05/27 04:35:10;;;;;;;2.70;1.50;;;21.20;52.40;;;;;;5083811;28;20443;-83
2022/05/27 04:37:39;;;;;;;2.27;1.60;;;21.20;52.30;;;;;;5083585;28;20460;-84
2022/05/27 04:40:09;;;;;;;2.33;1.67;;;21.20;52.40;;;;;;5082594;28;20440;-82
2022/05/27 04:42:37;;;;;;;1.80;1.50;;;21.20;52.30;;;;;;5083477;28;20545;-83
2022/05/27 04:45:06;;;;;;;2.10;1.80;;;21.20;52.20;;;;;;5082915;28;20502;-84
2022/05/27 04:47:34;;;;;;;11.07;2.17;;;21.30;52.20;;;;;;5085883;28;20472;-83
2022/05/27 04:50:02;;;;;;;2.10;1.50;;;21.30;52.10;;;;;;5086956;28;20459;-82
2022/05/27 04:52:32;;;;;;;2.57;2.03;;;21.30;52.10;;;;;;5089658;28;20446;-83
2022/05/27 04:55:03;;;;;;;3.27;1.50;;;21.30;52.00;;;;;;5090016;28;20445;-84
2022/05/27 04:57:32;;;;;;;2.07;1.50;;;21.30;52.00;;;;;;5083674;28;20457;-84
2022/05/27 05:00:00;;;;;;;3.17;1.70;;;21.30;51.90;;;;;;5082561;28;20445;-83
2022/05/27 05:02:28;;;;;;;2.30;1.60;;;21.40;52.00;;;;;;5083489;28;20449;-83
2022/05/27 05:05:03;;;;;;;6.00;1.63;;;21.40;51.80;;;;;;5084006;28;20445;-83
2022/05/27 05:07:31;;;;;;;3.23;1.70;;;21.40;51.70;;;;;;5076571;28;20448;-84
2022/05/27 05:10:01;;;;;;;4.20;1.87;;;21.40;51.80;;;;;;5082904;28;20447;-83
2022/05/27 05:12:29;;;;;;;5.20;2.10;;;21.40;51.60;;;;;;5082547;28;20457;-83
2022/05/27 05:14:58;;;;;;;2.30;1.67;;;21.40;51.60;;;;;;5083225;28;20451;-84
2022/05/27 05:17:26;;;;;;;4.90;1.80;;;21.50;51.60;;;;;;5083360;28;20532;-84
2022/05/27 05:19:57;;;;;;;2.70;1.50;;;21.50;51.60;;;;;;5083869;28;20423;-84
2022/05/27 05:22:27;;;;;;;2.57;1.80;;;21.50;51.70;;;;;;5083551;28;20495;-82
2022/05/27 05:25:00;;;;;;;3.43;1.50;;;21.50;51.50;;;;;;5081964;28;20495;-84
2022/05/27 05:27:29;;;;;;;1.43;1.33;;;21.50;51.40;;;;;;5082140;28;20447;-84
2022/05/27 05:29:57;;;;;;;5.27;1.87;;;21.50;51.40;;;;;;5082205;28;20454;-84
2022/05/27 05:32:27;;;;;;;1.90;1.63;;;21.50;51.30;;;;;;5082202;28;20445;-83
2022/05/27 05:34:59;;;;;;;3.77;2.00;;;21.60;51.30;;;;;;5082054;28;20445;-83
2022/05/27 05:37:33;;;;;;;2.73;1.73;;;21.60;51.20;;;;;;5081128;28;20420;-83
2022/05/27 05:40:10;;;;;;;5.53;2.10;;;21.60;51.10;;;;;;5075815;28;20412;-83
2022/05/27 05:42:40;;;;;;;2.07;1.70;;;21.70;51.20;;;;;;5082279;28;20456;-83
2022/05/27 05:45:19;;;;;;;4.27;1.80;;;21.70;51.10;;;;;;5081132;28;20453;-84
2022/05/27 05:47:47;;;;;;;2.53;1.50;;;21.70;51.00;;;;;;5082218;28;20494;-83
2022/05/27 05:50:19;;;;;;;4.50;2.00;;;21.70;51.00;;;;;;5082246;28;20436;-83
2022/05/27 05:52:54;;;;;;;3.87;2.37;;;21.70;51.60;;;;;;5082203;28;20420;-84
2022/05/27 05:55:35;;;;;;;1.93;1.40;;;21.80;51.00;;;;;;5079488;28;20440;-83
2022/05/27 05:58:13;;;;;;;2.10;1.40;;;21.80;51.00;;;;;;5065979;28;20408;-83
2022/05/27 06:00:41;;;;;;;1.80;1.70;;;21.70;50.90;;;;;;5080661;28;20461;-80
2022/05/27 06:03:10;;;;;;;4.33;1.67;;;21.70;51.00;;;;;;5080768;28;20450;-82
2022/05/27 06:05:42;;;;;;;2.73;1.60;;;21.80;51.00;;;;;;5081572;28;20441;-82
2022/05/27 06:08:14;;;;;;;1.63;1.40;;;21.80;51.00;;;;;;5081105;28;21035;-83
2022/05/27 06:10:43;;;;;;;3.37;1.67;;;21.70;50.80;;;;;;5082520;28;20462;-83
2022/05/27 06:13:12;;;;;;;2.63;1.70;;;21.80;50.70;;;;;;5080812;28;20463;-83
2022/05/27 06:15:40;;;;;;;1.60;1.50;;;21.80;50.60;;;;;;5081764;28;20439;-82
2022/05/27 06:18:08;;;;;;;1.60;1.50;;;21.80;50.70;;;;;;5080782;28;20420;-83
2022/05/27 06:20:37;;;;;;;2.20;1.57;;;21.80;50.70;;;;;;5080289;28;20557;-83
2022/05/27 06:23:06;;;;;;;3.50;1.60;;;21.80;50.70;;;;;;5082254;28;20448;-83
2022/05/27 06:25:34;;;;;;;2.67;1.53;;;21.90;50.60;;;;;;5081720;28;20510;-83
2022/05/27 06:36:23;;;;;;;1.83;1.67;;;21.90;50.50;;;;;;5080672;28;20436;-84
2022/05/27 06:38:51;;;;;;;3.40;1.30;;;21.90;50.40;;;;;;5081375;28;20505;-83
2022/05/27 06:41:19;;;;;;;2.13;1.73;;;22.00;50.40;;;;;;5082144;28;20507;-83
2022/05/27 06:43:47;;;;;;;4.90;1.90;;;22.20;50.00;;;;;;5076607;28;20464;-83
2022/05/27 06:46:17;;;;;;;3.40;1.60;;;22.20;49.90;;;;;;5081144;28;20470;-84
2022/05/27 06:48:45;;;;;;;3.87;2.10;;;22.40;49.70;;;;;;5081026;28;20470;-83
2022/05/27 06:51:13;;;;;;;6.80;2.20;;;22.40;49.60;;;;;;5079365;28;20516;-83
2022/05/27 06:53:41;;;;;;;3.93;2.10;;;22.40;49.50;;;;;;5075484;28;20493;-82
2022/05/27 06:56:09;;;;;;;2.40;1.53;;;22.40;49.40;;;;;;5079824;28;20417;-83
2022/05/27 06:58:40;;;;;;;3.53;1.77;;;22.50;49.40;;;;;;5080566;28;20433;-83
2022/05/27 07:01:12;;;;;;;3.53;1.40;;;22.40;49.40;;;;;;5079741;28;20553;-83
2022/05/27 07:04:04;;;;;;;6.77;1.80;;;22.70;49.20;;;;;;5086071;28;20467;-84
2022/05/27 07:06:34;;;;;;;1.90;1.60;;;22.70;49.20;;;;;;5086502;28;20416;-84
2022/05/27 07:09:06;;;;;;;3.13;1.90;;;22.90;49.00;;;;;;5079193;28;20513;-82
2022/05/27 07:11:34;;;;;;;2.33;1.60;;;23.20;48.50;;;;;;5077644;28;20466;-84
2022/05/27 07:14:03;;;;;;;5.40;1.87;;;23.30;48.20;;;;;;5078345;28;20446;-84
2022/05/27 07:16:31;;;;;;;3.57;1.73;;;23.30;48.20;;;;;;5073187;28;20496;-85
2022/05/27 07:19:24;;;;;;;6.10;1.50;;;23.40;48.00;;;;;;5076085;28;20404;-84
2022/05/27 07:21:55;;;;;;;2.93;2.00;;;23.30;48.40;;;;;;5077321;28;20480;-84
2022/05/27 07:24:24;;;;;;;3.10;2.07;;;23.60;47.80;;;;;;5072557;28;20451;-84
2022/05/27 07:26:52;;;;;;;5.20;2.13;;;23.70;47.30;;;;;;5075576;28;20537;-85
2022/05/27 07:29:20;;;;;;;3.10;1.90;;;23.50;47.30;;;;;;5074733;28;20462;-83
2022/05/27 07:31:48;;;;;;;4.83;2.23;;;23.50;47.80;;;;;;5076204;28;20478;-84
2022/05/27 07:34:16;;;;;;;5.33;2.20;;;23.70;47.40;;;;;;5077582;28;20423;-83
2022/05/27 07:36:55;;;;;;;3.60;2.07;;;23.70;47.50;;;;;;5077536;28;20507;-85
2022/05/27 07:39:24;;;;;;;1.87;1.73;;;23.80;47.40;;;;;;5072978;28;20424;-84
2022/05/27 07:41:52;;;;;;;5.40;2.13;;;23.90;47.10;;;;;;5072805;28;20436;-84
2022/05/27 07:44:20;;;;;;;4.40;2.07;;;24.10;47.10;;;;;;5074403;28;20430;-85
2022/05/27 07:46:51;;;;;;;5.97;2.20;;;23.90;47.30;;;;;;5072071;28;20445;-85
2022/05/27 07:49:19;;;;;;;5.90;2.00;;;24.30;46.60;;;;;;5076949;28;20532;-86
2022/05/27 07:52:15;;;;;;;3.10;2.33;;;24.30;46.70;;;;;;5077601;28;20469;-85
2022/05/27 07:54:43;;;;;;;5.13;2.10;;;24.30;46.50;;;;;;5062204;28;20465;-85
2022/05/27 07:57:32;;;;;;;3.20;1.90;;;24.30;46.60;;;;;;5061773;28;20434;-88
2022/05/27 08:00:01;;;;;;;6.10;2.30;;;24.40;46.60;;;;;;5069115;28;20412;-85
2022/05/27 08:02:33;;;;;;;4.60;1.90;;;24.40;46.70;;;;;;5077259;28;20425;-85
2022/05/27 08:05:01;;;;;;;5.47;2.00;;;24.70;46.20;;;;;;5075770;28;20446;-88
2022/05/27 08:07:39;;;;;;;4.80;2.13;;;24.90;46.00;;;;;;5075397;28;20446;-87
2022/05/27 08:10:13;;;;;;;3.33;1.77;;;24.90;45.60;;;;;;5073615;28;20442;-87
2022/05/27 08:12:41;;;;;;;6.70;1.90;;;25.00;45.60;;;;;;5073347;28;20507;-86
2022/05/27 08:15:11;;;;;;;6.10;2.20;;;25.00;45.40;;;;;;5072839;28;20437;-87
2022/05/27 08:17:39;;;;;;;6.20;2.03;;;24.80;45.50;;;;;;5072636;28;20512;-86
2022/05/27 08:20:09;;;;;;;3.47;2.00;;;24.70;45.60;;;;;;5073846;28;20416;-85
2022/05/27 08:22:41;;;;;;;5.33;2.07;;;24.90;45.30;;;;;;5076256;28;20450;-85
2022/05/27 08:25:09;;;;;;;7.60;2.17;;;24.80;45.60;;;;;;5075784;28;20433;-86
2022/05/27 08:27:38;;;;;;;6.40;2.23;;;25.00;45.30;;;;;;5076683;28;20428;-86
2022/05/27 08:41:02;;;;;;;2.80;2.00;;;25.20;45.00;;;;;;5111392;27;20545;-84
2022/05/27 08:43:32;;;;;;;7.80;2.50;;;25.70;44.60;;;;;;5111374;28;20471;-85
2022/05/27 08:46:07;;;;;;;4.90;2.20;;;25.90;43.90;;;;;;5106992;28;20491;-85
2022/05/27 08:48:38;;;;;;;5.87;2.83;;;26.20;43.50;;;;;;5091793;28;20449;-86
2022/05/27 08:51:27;;;;;;;5.70;2.23;;;26.50;43.20;;;;;;5093011;28;20434;-85
2022/05/27 08:53:57;;;;;;;4.00;2.00;;;26.70;42.70;;;;;;5091746;28;20479;-84
2022/05/27 08:59:31;;;;;;;6.77;1.90;;;26.70;42.20;;;;;;5066767;28;20467;-85
2022/05/27 09:02:02;;;;;;;5.17;2.13;;;26.60;42.00;;;;;;5092851;28;20468;-84
2022/05/27 09:04:34;;;;;;;4.33;2.13;;;26.50;42.20;;;;;;5094084;28;20468;-84
2022/05/27 09:07:06;;;;;;;4.97;1.87;;;26.50;42.50;;;;;;5092916;28;20528;-84
2022/05/27 09:09:34;;;;;;;6.17;2.27;;;26.60;42.10;;;;;;5092571;28;20435;-84
2022/05/27 09:12:26;;;;;;;3.37;1.67;;;26.70;42.10;;;;;;5093811;28;20520;-84
2022/05/27 09:15:18;;;;;;;6.27;2.10;;;27.00;41.90;;;;;;5100752;28;20445;-84
2022/05/27 09:18:07;;;;;;;3.70;2.03;;;27.20;41.70;;;;;;5096539;28;20419;-84
2022/05/27 09:20:42;;;;;;;4.97;1.87;;;27.10;41.20;;;;;;5090169;28;20881;-84
2022/05/27 09:23:23;;;;;;;5.93;2.10;;;27.40;40.80;;;;;;5093747;28;20464;-83
2022/05/27 09:25:55;;;;;;;6.40;2.37;;;27.40;40.80;;;;;;5094086;28;20535;-84
2022/05/27 09:28:28;;;;;;;2.97;1.83;;;27.50;40.30;;;;;;5114917;28;20407;-85
2022/05/27 09:30:57;;;;;;;6.70;2.00;;;27.60;40.20;;;;;;5114590;28;20460;-84
2022/05/27 09:33:26;;;;;;;5.93;1.90;;;27.40;40.00;;;;;;5114562;28;20442;-83
2022/05/27 09:35:58;;;;;;;6.83;2.30;;;27.10;40.30;;;;;;5114218;28;20450;-85
2022/05/27 09:38:27;;;;;;;9.40;2.07;;;27.00;40.40;;;;;;5114218;28;20527;-86
2022/05/27 09:40:57;;;;;;;7.10;2.23;;;27.00;40.40;;;;;;5113255;28;20487;-83
2022/05/27 09:43:29;;;;;;;2.37;1.70;;;27.10;40.40;;;;;;5100126;28;20908;-84
2022/05/27 09:45:59;;;;;;;5.37;2.43;;;27.10;40.40;;;;;;5098610;28;20445;-85
2022/05/27 09:48:40;;;;;;;5.33;2.20;;;27.40;40.00;;;;;;5111001;28;20443;-85
2022/05/27 09:51:14;;;;;;;6.07;2.47;;;27.60;39.80;;;;;;5100524;28;20524;-83
2022/05/27 09:53:44;;;;;;;6.87;2.37;;;27.70;39.40;;;;;;5099423;28;20445;-84
2022/05/27 09:56:14;;;;;;;3.80;2.30;;;27.60;40.10;;;;;;5099745;28;20951;-83
2022/05/27 09:58:45;;;;;;;2.90;1.70;;;28.00;39.60;;;;;;5099788;28;20502;-84
2022/05/27 10:01:23;;;;;;;4.90;2.27;;;28.00;39.80;;;;;;5099461;28;20522;-84
2022/05/27 10:03:59;;;;;;;3.83;1.93;;;28.00;39.60;;;;;;5099597;28;20512;-85
2022/05/27 10:06:29;;;;;;;2.70;1.87;;;28.20;39.00;;;;;;5098728;28;20524;-84
2022/05/27 10:09:00;;;;;;;5.10;2.00;;;28.20;38.80;;;;;;5099739;28;20507;-83
2022/05/27 10:11:29;;;;;;;6.00;1.80;;;28.40;38.90;;;;;;5098134;28;20494;-86
2022/05/27 10:14:19;;;;;;;5.87;2.87;;;28.40;39.60;;;;;;5100517;28;20455;-85
2022/05/27 10:17:00;;;;;;;4.33;2.20;;;28.30;39.30;;;;;;5080914;28;20521;-87
2022/05/27 10:19:28;;;;;;;4.47;2.07;;;28.60;38.50;;;;;;5084851;28;20445;-85
2022/05/27 10:21:58;;;;;;;5.23;1.80;;;28.70;38.10;;;;;;5085587;28;20473;-84
2022/05/27 10:24:32;;;;;;;6.60;2.30;;;28.50;38.10;;;;;;5084839;28;20479;-86
2022/05/27 10:27:06;;;;;;;8.07;2.30;;;28.30;38.30;;;;;;5084997;28;20458;-84
2022/05/27 10:29:51;;;;;;;5.90;2.23;;;28.50;38.30;;;;;;5085673;28;20473;-85
2022/05/27 10:32:28;;;;;;;3.33;2.03;;;28.60;38.20;;;;;;5085920;28;20444;-85
2022/05/27 10:34:57;;;;;;;4.23;2.10;;;28.40;38.40;;;;;;5084597;28;20471;-86
2022/05/27 10:37:33;;;;;;;2.53;2.03;;;28.30;38.10;;;;;;5083661;28;20442;-84
2022/05/27 10:40:11;;;;;;;4.43;2.10;;;28.00;38.70;;;;;;5080237;28;20484;-84
2022/05/27 10:42:46;;;;;;;4.13;2.20;;;28.00;38.60;;;;;;5082287;28;20420;-84
2022/05/27 10:45:20;;;;;;;5.00;2.10;;;28.20;38.20;;;;;;5083098;28;20512;-85
2022/05/27 10:48:12;;;;;;;3.10;1.73;;;28.60;38.20;;;;;;5087056;28;20460;-84
2022/05/27 10:50:44;;;;;;;6.70;2.00;;;29.00;37.50;;;;;;5085254;28;20500;-85
2022/05/27 10:53:22;;;;;;;3.10;1.97;;;28.90;37.10;;;;;;5085419;28;20499;-85
2022/05/27 10:56:00;;;;;;;3.37;1.87;;;28.70;37.10;;;;;;5085693;28;20450;-85
2022/05/27 11:04:40;;;;;;;3.23;1.90;;;29.00;37.20;;;;;;5082594;28;20498;-85
2022/05/27 11:07:18;;;;;;;2.87;1.80;;;28.90;37.20;;;;;;5081930;28;20505;-86
2022/05/27 11:09:53;;;;;;;2.87;1.60;;;29.10;36.70;;;;;;5082660;28;20473;-84
2022/05/27 11:15:10;;;;;;;2.03;1.80;;;29.50;36.70;;;;;;5080972;28;20516;-85
2022/05/27 11:15:31;;;;;;;4.27;1.80;;;29.70;36.50;;;;;;5082508;28;20513;-86
2022/05/27 11:18:04;;;;;;;3.50;2.00;;;30.50;35.90;;;;;;5081030;28;20453;-85
2022/05/27 11:20:45;;;;;;;3.57;1.40;;;31.60;34.80;;;;;;5071158;28;20468;-86
2022/05/27 11:23:38;;;;;;;3.70;1.77;;;31.60;32.80;;;;;;5078128;28;20445;-85
2022/05/27 11:26:09;;;;;;;4.17;2.03;;;30.90;33.60;;;;;;5064427;28;20537;-85
2022/05/27 11:29:01;;;;;;;5.43;1.43;;;30.50;34.20;;;;;;5073009;28;20472;-85
2022/05/27 11:31:37;;;;;;;3.83;1.80;;;30.50;35.30;;;;;;5074230;28;20484;-85
2022/05/27 11:34:29;;;;;;;3.43;1.40;;;31.50;34.50;;;;;;5070399;28;20445;-85
2022/05/27 11:37:59;;;;;;;2.90;1.53;;;31.80;32.60;;;;;;5092004;28;20462;-85
2022/05/27 11:40:40;;;;;;;2.63;1.60;;;31.30;33.10;;;;;;5067152;28;20481;-85
2022/05/27 11:43:30;;;;;;;2.73;1.50;;;32.40;33.10;;;;;;5074667;28;21013;-84
2022/05/27 11:46:16;;;;;;;3.20;1.67;;;33.30;30.00;;;;;;5085259;28;20434;-84
2022/05/27 11:53:14;;;;;;;4.67;1.97;;;31.90;31.60;;;;;;5031514;23;20556;-82
2022/05/27 11:56:11;;;;;;;4.07;2.00;;;31.10;32.70;;;;;;5006483;28;20444;-83
2022/05/27 11:58:49;;;;;;;7.57;1.77;;;31.30;32.60;;;;;;5026357;28;20511;-82
2022/05/27 12:01:33;;;;;;;2.90;1.50;;;32.70;31.80;;;;;;5021540;28;20556;-83
2022/05/27 12:04:05;;;;;;;4.33;1.60;;;33.60;30.20;;;;;;5022928;28;20436;-83
2022/05/27 12:06:38;;;;;;;4.60;1.70;;;33.10;29.80;;;;;;5022195;28;20472;-82
2022/05/27 12:09:09;;;;;;;3.27;1.50;;;31.80;31.40;;;;;;5021380;28;20436;-82
2022/05/27 12:11:39;;;;;;;4.57;1.70;;;30.90;32.90;;;;;;5021906;28;20466;-82
2022/05/27 12:14:13;;;;;;;1.77;1.40;;;30.30;33.90;;;;;;5017672;28;20496;-83
2022/05/27 12:16:43;;;;;;;4.03;1.63;;;31.10;34.30;;;;;;5021933;28;20448;-82
2022/05/27 12:19:13;;;;;;;4.80;1.67;;;32.10;32.30;;;;;;5020750;28;20515;-82
2022/05/27 12:21:43;;;;;;;2.60;1.37;;;32.70;31.30;;;;;;5020488;28;20555;-82
2022/05/27 12:24:21;;;;;;;4.60;1.90;;;32.80;30.90;;;;;;5023030;28;20483;-85
2022/05/27 12:26:51;;;;;;;5.50;1.90;;;32.40;31.00;;;;;;5020546;28;20494;-86
2022/05/27 12:29:26;;;;;;;3.90;2.00;;;31.80;32.00;;;;;;5021945;28;20463;-84
2022/05/27 12:32:00;;;;;;;3.20;1.63;;;31.50;31.80;;;;;;5017829;28;20476;-84
2022/05/27 12:34:39;;;;;;;6.20;1.90;;;30.90;32.80;;;;;;5020084;28;20479;-84
2022/05/27 12:37:24;;;;;;;4.50;1.77;;;30.90;33.90;;;;;;5019738;28;20452;-85
2022/05/27 12:40:20;;;;;;;4.50;1.80;;;30.60;33.30;;;;;;5019906;28;20448;-85
2022/05/27 12:42:49;;;;;;;3.70;1.77;;;30.30;34.10;;;;;;5018908;28;20464;-86
2022/05/27 12:45:38;;;;;;;2.40;1.93;;;30.60;34.40;;;;;;5019135;28;20448;-85
2022/05/27 12:48:08;;;;;;;2.03;1.60;;;30.40;33.40;;;;;;5016434;28;20955;-85
2022/05/27 12:50:38;;;;;;;3.97;1.80;;;30.10;34.30;;;;;;5016573;28;20491;-84
2022/05/27 12:53:26;;;;;;;3.00;2.10;;;30.10;34.80;;;;;;5020804;28;20455;-84
2022/05/27 13:02:52;;;;;;;3.70;1.73;;;30.00;34.20;;;;;;5020232;28;20448;-86
2022/05/27 13:05:21;;;;;;;2.63;1.40;;;30.10;33.90;;;;;;5016509;28;20544;-84
2022/05/27 13:08:11;;;;;;;6.57;1.87;;;30.50;33.80;;;;;;5018791;28;20475;-84
2022/05/27 13:10:54;;;;;;;4.07;2.10;;;30.50;33.20;;;;;;5019119;28;20483;-84
2022/05/27 13:13:34;;;;;;;5.23;2.23;;;30.40;34.00;;;;;;5020594;28;20436;-85
2022/05/27 13:16:10;;;;;;;3.33;2.10;;;30.60;33.70;;;;;;5020539;28;20479;-84
2022/05/27 13:18:51;;;;;;;7.43;2.10;;;31.00;33.20;;;;;;5023536;28;20463;-84
2022/05/27 13:21:36;;;;;;;4.07;2.10;;;31.30;32.80;;;;;;5022846;28;20499;-84
2022/05/27 13:24:06;;;;;;;4.50;1.77;;;31.50;32.30;;;;;;5022269;28;20436;-84
2022/05/27 13:26:39;;;;;;;6.90;2.33;;;31.60;32.20;;;;;;5022404;28;20530;-85
2022/05/27 13:29:33;;;;;;;3.43;1.60;;;31.60;32.30;;;;;;5021691;28;20509;-84
2022/05/27 13:32:04;;;;;;;5.07;1.73;;;31.60;32.40;;;;;;5022072;28;20452;-84
2022/05/27 13:34:42;;;;;;;3.77;1.80;;;31.50;32.30;;;;;;5023038;28;20412;-85
2022/05/27 13:37:20;;;;;;;2.37;1.77;;;31.50;32.40;;;;;;5022715;28;20467;-85
2022/05/27 13:39:52;;;;;;;3.23;1.77;;;31.30;32.60;;;;;;5021285;28;20439;-84
2022/05/27 13:42:27;;;;;;;5.63;2.00;;;31.20;32.70;;;;;;5021327;28;20476;-85
2022/05/27 13:44:57;;;;;;;3.47;1.60;;;31.00;32.90;;;;;;5022414;28;20443;-85
2022/05/27 13:47:47;;;;;;;9.00;2.37;;;30.70;32.90;;;;;;5024043;28;20444;-83
2022/05/27 13:50:27;;;;;;;12.60;2.75;;;30.30;35.00;;;;;;5020614;28;20519;-86
2022/05/27 13:52:56;;;;;;;4.33;2.10;;;30.20;35.60;;;;;;5025959;28;20207;-83
2022/05/27 13:55:27;;;;;;;9.13;2.47;;;30.30;35.00;;;;;;5031093;28;20441;-83
2022/05/27 13:57:56;;;;;;;3.73;1.83;;;30.00;35.30;;;;;;5026385;28;20520;-83
2022/05/27 14:00:25;;;;;;;10.53;2.57;;;30.10;34.60;;;;;;5022770;28;20491;-82
2022/05/27 14:02:53;;;;;;;7.33;2.07;;;30.30;34.30;;;;;;5021450;28;20478;-83
2022/05/27 14:05:22;;;;;;;6.23;2.60;;;30.30;33.90;;;;;;5025116;28;20451;-85